Time;durP1;ratioP1;P1;durP2;ratioP2;P2;SDS_P1;SDS_P2;PMS_P1;PMS_P2;Temp;Humidity;BMP_temperature;BMP_pressure;BME280_temperature;BME280_humidity;BME280_pressure;Samples;Min_cycle;Max_cycle;Signal;HPM_P1;HPM_P2
2022/05/06 00:01:50;;;;;;;1999.90;999.90;;;;;;;12.36;60.51;101896.78;15707571;28;20152;-57
2022/05/06 00:09:24;;;;;;;1999.90;999.90;;;;;;;12.24;60.63;101900.16;15703061;28;20052;-57
2022/05/06 00:16:56;;;;;;;1999.90;999.90;;;;;;;11.98;61.93;101902.69;15685426;28;20520;-58
2022/05/06 00:24:30;;;;;;;1999.90;999.90;;;;;;;11.84;63.49;101905.50;15711684;28;20465;-60
2022/05/06 00:32:03;;;;;;;1999.90;999.90;;;;;;;11.74;63.08;101905.69;15694138;28;20049;-60
2022/05/06 00:39:36;;;;;;;1999.90;999.90;;;;;;;11.44;64.14;101898.78;15703622;28;20059;-55
2022/05/06 00:47:09;;;;;;;1999.90;999.90;;;;;;;11.45;63.57;101897.63;15702930;28;20098;-58
2022/05/06 00:54:43;;;;;;;1999.90;999.90;;;;;;;11.41;63.75;101895.78;15685571;28;20033;-58
2022/05/06 01:02:15;;;;;;;1999.90;999.90;;;;;;;11.10;65.22;101895.53;15715794;28;20140;-56
2022/05/06 01:09:50;;;;;;;1999.90;999.90;;;;;;;10.98;65.55;101899.66;15685584;28;20492;-58
2022/05/06 01:17:23;;;;;;;1999.90;999.90;;;;;;;10.91;64.74;101893.63;15712678;28;20048;-59
2022/05/06 01:24:56;;;;;;;1999.90;999.90;;;;;;;10.73;66.20;101902.88;15676743;28;20160;-58
2022/05/06 01:32:30;;;;;;;;;;;;;;;10.82;66.53;101906.66;15688875;28;20037;-58
2022/05/06 01:40:05;;;;;;;1999.90;999.90;;;;;;;10.72;66.57;101906.00;15703864;28;20486;-57
2022/05/06 01:47:43;;;;;;;1999.90;999.90;;;;;;;10.39;67.00;101906.78;15677588;28;20132;-55
2022/05/06 01:55:20;;;;;;;1999.90;999.90;;;;;;;10.37;66.99;101900.69;15686828;28;20114;-62
2022/05/06 02:03:04;;;;;;;1999.90;999.90;;;;;;;10.14;66.24;101904.38;15704994;28;20040;-57
2022/05/06 02:10:44;;;;;;;1999.90;999.90;;;;;;;10.11;66.86;101899.41;15689320;28;20524;-58
2022/05/06 02:18:20;;;;;;;1999.90;999.90;;;;;;;9.99;68.60;101899.00;15682127;28;20148;-59
2022/05/06 02:26:03;;;;;;;1999.90;999.90;;;;;;;9.81;68.77;101900.66;15675966;28;20055;-58
2022/05/06 02:33:44;;;;;;;1999.90;999.90;;;;;;;9.81;67.94;101901.50;15697561;28;20040;-58
2022/05/06 02:41:27;;;;;;;1999.90;999.90;;;;;;;9.79;68.33;101909.31;15683514;28;20136;-57
2022/05/06 02:49:02;;;;;;;1999.90;999.90;;;;;;;9.69;67.62;101897.44;15690503;28;20354;-58
2022/05/06 02:56:36;;;;;;;1999.90;999.90;;;;;;;9.49;68.53;101913.31;15714724;28;20032;-54
2022/05/06 03:04:12;;;;;;;1999.90;999.90;;;;;;;9.38;69.75;101910.94;15743487;28;20045;-57
2022/05/06 03:11:47;;;;;;;1999.90;999.90;;;;;;;9.48;68.70;101919.16;15706667;28;20094;-56
2022/05/06 03:19:24;;;;;;;1999.90;999.90;;;;;;;9.36;69.13;101905.66;15715119;28;20052;-57
2022/05/06 03:26:58;;;;;;;1999.90;999.90;;;;;;;9.24;69.64;101910.81;15685681;28;20126;-59
2022/05/06 03:34:33;;;;;;;1999.90;999.90;;;;;;;9.42;68.29;101914.81;15721668;28;20076;-55
2022/05/06 03:42:08;;;;;;;1999.90;999.90;;;;;;;9.32;68.39;101918.53;15711001;28;20036;-58
2022/05/06 03:49:43;;;;;;;1999.90;999.90;;;;;;;9.35;68.57;101923.50;15731516;28;20136;-58
2022/05/06 03:57:18;;;;;;;1999.90;999.90;;;;;;;9.34;68.73;101927.41;15690444;28;20033;-56
2022/05/06 04:04:51;;;;;;;1999.90;999.90;;;;;;;9.30;70.05;101933.88;15679410;28;20143;-57
2022/05/06 04:12:27;;;;;;;1999.90;999.90;;;;;;;9.52;69.43;101939.75;15694258;28;20060;-57
2022/05/06 04:28:02;;;;;;;1999.90;999.90;;;;;;;9.88;69.63;101950.47;15709742;28;20060;-57
2022/05/06 04:35:35;;;;;;;1999.90;999.90;;;;;;;10.21;69.10;101963.38;15687737;28;20044;-59
2022/05/06 04:43:14;;;;;;;1999.90;999.90;;;;;;;10.48;68.91;101971.13;15691558;28;20064;-58
2022/05/06 04:50:49;;;;;;;1999.90;999.90;;;;;;;10.88;68.46;101978.03;15697283;28;20055;-61
2022/05/06 04:58:25;;;;;;;1999.90;999.90;;;;;;;11.40;67.27;101980.75;15691942;28;20036;-57
2022/05/06 05:05:59;;;;;;;1999.90;999.90;;;;;;;11.79;66.53;101981.16;15686551;28;20048;-58
2022/05/06 05:13:34;;;;;;;1999.90;999.90;;;;;;;12.32;66.26;101988.16;15726680;23;20055;-60
2022/05/06 05:21:09;;;;;;;1999.90;999.90;;;;;;;13.04;64.78;101998.47;15786332;28;20131;-61
2022/05/06 05:28:43;;;;;;;1999.90;999.90;;;;;;;13.90;62.86;102006.56;15799915;28;20044;-61
2022/05/06 05:36:17;;;;;;;1999.90;999.90;;;;;;;14.61;61.30;102010.06;15789548;28;20055;-60
2022/05/06 05:51:43;;;;;;;1999.90;999.90;;;;;;;16.16;57.14;102008.91;15800724;28;20497;-59
2022/05/06 05:59:17;;;;;;;1999.90;999.90;;;;;;;17.54;52.66;102007.75;15805263;28;20515;-62
2022/05/06 06:06:50;;;;;;;1999.90;999.90;;;;;;;18.23;52.31;102016.50;15786945;28;20072;-62
2022/05/06 06:14:26;;;;;;;1999.90;999.90;;;;;;;19.25;49.72;102021.69;15747547;28;20078;-62
2022/05/06 06:21:59;;;;;;;1999.90;999.90;;;;;;;20.17;45.70;102028.22;15782747;28;20075;-62
2022/05/06 06:29:43;;;;;;;1999.90;999.90;;;;;;;19.91;46.69;102034.44;15802052;28;20052;-62
2022/05/06 06:37:19;;;;;;;1999.90;999.90;;;;;;;20.31;44.89;102047.56;15765284;28;20358;-62
2022/05/06 06:44:56;;;;;;;1999.90;999.90;;;;;;;21.32;44.06;102049.50;15733130;28;20525;-62
2022/05/06 06:52:48;;;;;;;1999.90;999.90;;;;;;;21.24;42.27;102048.50;15750015;28;20771;-60
2022/05/06 07:00:22;;;;;;;1999.90;999.90;;;;;;;21.86;41.67;102045.66;15749590;28;20059;-61
2022/05/06 07:15:45;;;;;;;1999.90;999.90;;;;;;;22.62;40.02;102065.63;15790437;28;20136;-62
2022/05/06 07:23:17;;;;;;;1999.90;999.90;;;;;;;23.87;39.00;102073.78;15811534;28;20382;-62
2022/05/06 07:30:53;;;;;;;1999.90;999.90;;;;;;;24.40;38.18;102064.88;15811280;28;20040;-62
2022/05/06 07:38:25;;;;;;;1999.90;999.90;;;;;;;24.75;37.52;102082.25;15810478;28;20385;-61
2022/05/06 07:45:59;;;;;;;1999.90;999.90;;;;;;;24.36;36.50;102084.00;15779915;28;20048;-62
2022/05/06 07:53:31;;;;;;;1999.90;999.90;;;;;;;25.33;34.97;102084.22;15772102;28;20123;-61
2022/05/06 08:01:05;;;;;;;1999.90;999.90;;;;;;;26.33;33.02;102078.69;15800399;28;20097;-63
2022/05/06 08:08:37;;;;;;;1999.90;999.90;;;;;;;25.85;34.62;102081.94;15746545;28;20053;-62
2022/05/06 08:16:11;;;;;;;1999.90;999.90;;;;;;;26.20;34.25;102086.06;15745820;28;20036;-62
2022/05/06 08:23:43;;;;;;;1999.90;999.90;;;;;;;26.09;35.65;102082.38;15743530;28;20044;-62
2022/05/06 08:31:18;;;;;;;1999.90;999.90;;;;;;;26.52;35.90;102071.78;15745128;28;20079;-62
2022/05/06 08:38:51;;;;;;;1999.90;999.90;;;;;;;27.96;32.30;102085.16;15742851;28;20048;-62
2022/05/06 08:54:19;;;;;;;1999.90;999.90;;;;;;;26.74;34.86;102076.22;15765298;28;20334;-62
2022/05/06 09:01:53;;;;;;;1999.90;999.90;;;;;;;27.32;32.98;102074.84;15803607;28;20036;-63
2022/05/06 09:09:28;;;;;;;1999.90;999.90;;;;;;;27.42;32.45;102081.75;15803926;28;20048;-61
2022/05/06 09:17:18;;;;;;;1999.90;999.90;;;;;;;28.10;31.98;102067.00;15803114;28;20036;-62
2022/05/06 09:24:55;;;;;;;1999.90;999.90;;;;;;;27.99;32.21;102063.41;15797787;28;20468;-63
2022/05/06 09:32:30;;;;;;;1999.90;999.90;;;;;;;28.63;31.51;102066.53;15765464;28;20480;-62
2022/05/06 09:40:06;;;;;;;1999.90;999.90;;;;;;;29.68;28.35;102067.75;15757770;28;20056;-62
2022/05/06 09:47:42;;;;;;;1999.90;999.90;;;;;;;28.75;30.63;102060.25;15765136;28;20044;-61
2022/05/06 09:55:16;;;;;;;1999.90;999.90;;;;;;;28.68;27.96;102054.59;15784729;28;20051;-62
2022/05/06 10:02:50;;;;;;;1999.90;999.90;;;;;;;26.30;32.20;102053.78;15776215;28;20415;-60
2022/05/06 10:10:26;;;;;;;1999.90;999.90;;;;;;;26.19;34.96;102052.97;15737318;28;20593;-62
2022/05/06 10:18:02;;;;;;;1999.90;999.90;;;;;;;28.82;29.60;102047.06;15737606;28;20056;-61
2022/05/06 10:25:49;;;;;;;1999.90;999.90;;;;;;;29.77;27.80;102036.38;15739499;28;20064;-61
2022/05/06 10:33:22;;;;;;;1999.90;999.90;;;;;;;30.15;28.31;102041.97;15739274;28;20037;-60
2022/05/06 10:40:57;;;;;;;1999.90;999.90;;;;;;;27.37;30.97;102035.50;15778839;28;20118;-62
2022/05/06 10:48:31;;;;;;;1999.90;999.90;;;;;;;29.88;27.29;102025.50;15802134;28;20044;-62
2022/05/06 10:56:03;;;;;;;1999.90;999.90;;;;;;;29.88;27.13;102019.75;15800434;28;20539;-62
2022/05/06 11:03:37;;;;;;;1999.90;999.90;;;;;;;29.52;28.38;102013.78;15801563;28;20103;-62
2022/05/06 11:11:17;;;;;;;1999.90;999.90;;;;;;;28.39;31.29;102005.28;15799785;28;20501;-61
2022/05/06 11:18:53;;;;;;;1999.90;999.90;;;;;;;30.05;28.03;101997.69;15807536;28;20485;-60
2022/05/06 11:26:26;;;;;;;1999.90;999.90;;;;;;;32.22;24.88;101989.31;15809346;28;20547;-61
2022/05/06 11:34:05;;;;;;;1999.90;999.90;;;;;;;29.43;29.25;101989.63;15793506;28;20611;-60
2022/05/06 11:41:37;;;;;;;1999.90;999.90;;;;;;;29.23;28.94;101975.97;15765095;28;20040;-62
2022/05/06 11:49:10;;;;;;;1999.90;999.90;;;;;;;27.28;31.29;101976.59;15748703;28;20401;-60
2022/05/06 11:56:45;;;;;;;1999.90;999.90;;;;;;;26.84;32.82;101965.75;15746894;28;20444;-61
2022/05/06 12:04:29;;;;;;;1999.90;999.90;;;;;;;27.25;31.20;101965.97;15745146;28;20123;-62
2022/05/06 12:12:04;;;;;;;1999.90;999.90;;;;;;;27.10;31.42;101955.84;15746503;28;20119;-61
2022/05/06 12:19:39;;;;;;;1999.90;999.90;;;;;;;26.23;32.57;101950.78;15744475;28;20048;-61
2022/05/06 12:27:13;;;;;;;1999.90;999.90;;;;;;;24.49;35.50;101959.81;15745402;28;20104;-60
2022/05/06 12:34:46;;;;;;;1999.90;999.90;;;;;;;24.76;35.99;101944.03;15729751;28;20048;-61
2022/05/06 12:42:22;;;;;;;1999.90;999.90;;;;;;;24.48;35.72;101943.88;15797958;28;20048;-62
2022/05/06 12:49:58;;;;;;;1999.90;999.90;;;;;;;24.51;35.96;101940.25;15808324;28;20052;-61
2022/05/06 12:57:36;;;;;;;1999.90;999.90;;;;;;;24.76;34.96;101932.59;15824084;28;20570;-62
2022/05/06 13:05:10;;;;;;;1999.90;999.90;;;;;;;23.86;35.38;101921.88;15808314;28;20048;-61
2022/05/06 13:12:45;;;;;;;1999.90;999.90;;;;;;;26.39;30.94;101916.03;15812474;28;20051;-61
2022/05/06 13:20:21;;;;;;;1999.90;999.90;;;;;;;27.37;29.84;101924.56;15818826;28;20475;-63
2022/05/06 13:27:56;;;;;;;1999.90;999.90;;;;;;;26.33;31.16;101911.94;15812888;28;20044;-61
2022/05/06 13:35:30;;;;;;;1999.90;999.90;;;;;;;25.04;34.38;101905.41;15807701;28;20040;-62
2022/05/06 13:43:03;;;;;;;1999.90;999.90;;;;;;;25.29;32.22;101897.69;15799460;28;20047;-59
2022/05/06 13:50:37;;;;;;;1999.90;999.90;;;;;;;25.68;32.19;101898.94;15802813;28;20093;-60
2022/05/06 14:06:00;;;;;;;1999.90;999.90;;;;;;;25.31;34.19;101875.25;15801920;28;20126;-60
2022/05/06 14:13:32;;;;;;;1999.90;999.90;;;;;;;24.24;34.58;101882.59;15763388;28;20465;-60
2022/05/06 14:21:06;;;;;;;1999.90;999.90;;;;;;;24.27;34.78;101893.19;15801284;28;20109;-61
2022/05/06 14:28:38;;;;;;;1999.90;999.90;;;;;;;25.03;33.28;101873.19;15800344;28;20043;-60
2022/05/06 14:36:17;;;;;;;1999.90;999.90;;;;;;;25.19;33.23;101869.13;15798776;28;20052;-61
2022/05/06 14:43:50;;;;;;;1999.90;999.90;;;;;;;24.39;33.07;101861.53;15778319;28;20079;-61
2022/05/06 14:51:24;;;;;;;1999.90;999.90;;;;;;;24.48;33.33;101858.28;15802571;28;20116;-62
2022/05/06 14:58:57;;;;;;;1999.90;999.90;;;;;;;24.85;32.25;101851.50;15809104;28;20512;-62
2022/05/06 15:06:31;;;;;;;1999.90;999.90;;;;;;;25.07;30.79;101846.66;15807874;28;20047;-62
2022/05/06 15:14:03;;;;;;;1999.90;999.90;;;;;;;24.80;30.51;101832.69;15778897;28;20062;-60
2022/05/06 15:21:37;;;;;;;1999.90;999.90;;;;;;;24.27;32.64;101841.06;15810573;28;20055;-62
2022/05/06 15:29:09;;;;;;;1999.90;999.90;;;;;;;24.11;31.81;101830.81;15788001;28;20516;-61
2022/05/06 15:36:43;;;;;;;1999.90;999.90;;;;;;;23.78;32.62;101836.72;15802240;28;20481;-60
2022/05/06 15:44:15;;;;;;;1999.90;999.90;;;;;;;24.31;32.17;101841.94;15802549;28;20052;-60
2022/05/06 15:51:49;;;;;;;1999.90;999.90;;;;;;;24.07;32.45;101834.84;15798710;28;20036;-60
2022/05/06 15:59:22;;;;;;;1999.90;999.90;;;;;;;23.69;32.77;101827.69;15798821;28;20048;-60
2022/05/06 16:06:55;;;;;;;1999.90;999.90;;;;;;;23.73;33.27;101834.22;15746914;28;20573;-62
2022/05/06 16:22:19;;;;;;;1999.90;999.90;;;;;;;23.23;32.71;101831.78;15782574;28;20132;-60
2022/05/06 16:29:52;;;;;;;1999.90;999.90;;;;;;;22.61;34.16;101828.66;15772209;28;20052;-61
2022/05/06 16:37:26;;;;;;;1999.90;999.90;;;;;;;22.92;35.90;101832.28;15775682;28;21475;-60
2022/05/06 16:44:58;;;;;;;1999.90;999.90;;;;;;;22.72;35.12;101829.63;15766081;28;20060;-62
2022/05/06 16:52:34;;;;;;;1999.90;999.90;;;;;;;22.44;35.11;101821.59;15786121;28;20052;-63
2022/05/06 17:00:09;;;;;;;1999.90;999.90;;;;;;;22.48;34.45;101813.91;15809455;28;20420;-62
2022/05/06 17:07:43;;;;;;;1999.90;999.90;;;;;;;22.06;35.12;101811.34;15836280;28;20532;-62
2022/05/06 17:15:18;;;;;;;1999.90;999.90;;;;;;;21.95;36.73;101807.50;15867478;28;20068;-62
2022/05/06 17:22:52;;;;;;;1999.90;999.90;;;;;;;21.72;37.71;101812.47;15818744;28;20037;-63
2022/05/06 17:30:24;;;;;;;1999.90;999.90;;;;;;;21.64;39.13;101805.84;15775656;28;20549;-63
2022/05/06 17:37:58;;;;;;;1999.90;999.90;;;;;;;21.43;40.50;101809.16;15748379;28;20106;-63
2022/05/06 17:45:30;;;;;;;1999.90;999.90;;;;;;;21.33;40.29;101818.34;15745948;28;20049;-64
2022/05/06 17:53:04;;;;;;;1999.90;999.90;;;;;;;21.11;41.18;101817.13;15746180;28;20056;-63
2022/05/06 18:08:29;;;;;;;1999.90;999.90;;;;;;;20.59;41.16;101812.09;15742191;28;20040;-62
2022/05/06 18:16:02;;;;;;;1999.90;999.90;;;;;;;20.26;42.79;101809.78;15741888;28;20132;-62
2022/05/06 18:23:36;;;;;;;1999.90;999.90;;;;;;;19.98;43.28;101813.63;15795087;28;20066;-63
2022/05/06 18:31:09;;;;;;;1999.90;999.90;;;;;;;19.59;44.14;101818.41;15814408;28;20142;-63
2022/05/06 18:38:42;;;;;;;1999.90;999.90;;;;;;;19.34;46.45;101829.09;15800820;28;20125;-63
2022/05/06 18:46:15;;;;;;;1999.90;999.90;;;;;;;19.03;46.01;101825.09;15803313;28;20488;-63
2022/05/06 18:53:49;;;;;;;1999.90;999.90;;;;;;;18.68;46.68;101826.97;15757462;28;20054;-63
2022/05/06 19:01:21;;;;;;;1999.90;999.90;;;;;;;18.32;47.75;101837.19;15800568;28;20052;-63
2022/05/06 19:08:56;;;;;;;1999.90;999.90;;;;;;;18.07;49.17;101835.66;15813229;28;20036;-63
2022/05/06 19:16:29;;;;;;;1999.90;999.90;;;;;;;17.81;49.09;101847.34;15780172;28;20069;-63
2022/05/06 19:31:52;;;;;;;1999.90;999.90;;;;;;;17.63;50.27;101838.28;15731320;28;20053;-63
2022/05/06 19:39:26;;;;;;;1999.90;999.90;;;;;;;17.64;50.55;101842.75;15748860;28;20041;-62
2022/05/06 19:46:59;;;;;;;1999.90;999.90;;;;;;;17.51;51.99;101835.47;15751307;28;20040;-63
2022/05/06 19:54:33;;;;;;;1999.90;999.90;;;;;;;17.37;53.07;101835.00;15811863;28;20058;-63
2022/05/06 20:02:05;;;;;;;1999.90;999.90;;;;;;;17.30;51.95;101832.78;15809469;28;20504;-63
2022/05/06 20:09:39;;;;;;;1999.90;999.90;;;;;;;17.19;52.49;101831.56;15809635;28;20044;-63
2022/05/06 20:17:14;;;;;;;1999.90;999.90;;;;;;;17.07;53.73;101835.19;15809257;28;20050;-63
2022/05/06 20:24:49;;;;;;;1999.90;999.90;;;;;;;17.07;54.04;101825.91;15808920;28;20067;-63
2022/05/06 20:32:21;;;;;;;1999.90;999.90;;;;;;;17.01;53.94;101830.97;15786121;28;20051;-62
2022/05/06 20:39:54;;;;;;;1999.90;999.90;;;;;;;17.05;55.19;101829.09;15786183;28;20101;-65
2022/05/06 20:47:27;;;;;;;1999.90;999.90;;;;;;;17.14;50.42;101827.00;15816376;28;20109;-65
2022/05/06 20:55:00;;;;;;;1999.90;999.90;;;;;;;17.10;50.55;101836.53;15803828;28;20040;-64
2022/05/06 21:02:33;;;;;;;1999.90;999.90;;;;;;;17.20;51.61;101831.25;15814376;28;20048;-65
2022/05/06 21:17:58;;;;;;;1999.90;999.90;;;;;;;17.16;52.30;101830.28;15812535;28;20036;-63
2022/05/06 21:25:31;;;;;;;1999.90;999.90;;;;;;;17.26;52.05;101829.81;15808944;28;20338;-62
2022/05/06 21:33:04;;;;;;;1999.90;999.90;;;;;;;17.13;51.89;101818.88;15803979;28;20063;-62
2022/05/06 21:40:38;;;;;;;1999.90;999.90;;;;;;;17.13;52.82;101830.16;15798033;28;20124;-62
2022/05/06 21:48:10;;;;;;;1999.90;999.90;;;;;;;16.79;54.11;101818.13;15796208;28;20161;-62
2022/05/06 21:55:44;;;;;;;1999.90;999.90;;;;;;;16.56;54.95;101819.66;15803114;28;20089;-62
2022/05/06 22:03:18;;;;;;;1999.90;999.90;;;;;;;16.31;54.91;101810.31;15802431;28;20412;-61
2022/05/06 22:10:52;;;;;;;1999.90;999.90;;;;;;;16.09;56.65;101812.31;15806387;28;20050;-62
2022/05/06 22:18:25;;;;;;;1999.90;999.90;;;;;;;15.80;56.44;101807.56;15804497;28;20554;-62
2022/05/06 22:25:58;;;;;;;1999.90;999.90;;;;;;;15.69;56.04;101803.53;15806227;28;20072;-61
2022/05/06 22:49:12;;;;;;;1999.90;999.90;;;;;;;14.94;59.89;101810.84;15799013;28;20040;-62
2022/05/06 22:56:45;;;;;;;1999.90;999.90;;;;;;;14.71;60.48;101799.03;15773521;28;20056;-62
2022/05/06 23:04:17;;;;;;;;;;;;;;;14.66;60.74;101796.38;15775558;28;20044;-61
2022/05/06 23:11:51;;;;;;;1999.90;999.90;;;;;;;14.29;61.47;101795.94;15793392;28;19920;-62
2022/05/06 23:19:24;;;;;;;1999.90;999.90;;;;;;;14.20;61.74;101802.72;15815293;28;20089;-61
2022/05/06 23:26:58;;;;;;;1999.90;999.90;;;;;;;14.09;61.65;101789.03;15814029;28;20036;-61
2022/05/06 23:34:30;;;;;;;1999.90;999.90;;;;;;;13.84;62.23;101793.47;15812735;28;20040;-61
2022/05/06 23:42:04;;;;;;;1999.90;999.90;;;;;;;13.77;61.53;101787.53;15812670;28;20131;-61
2022/05/06 23:49:37;;;;;;;1999.90;999.90;;;;;;;13.56;63.01;101778.09;15811429;28;20062;-62
2022/05/06 23:57:10;;;;;;;1999.90;999.90;;;;;;;13.51;62.74;101779.06;15810046;28;20048;-62
